createdAt,value
2018-10-11T00:01:02.174Z,30.13
2018-10-11T00:03:30.809Z,33.70
2018-10-11T00:05:59.495Z,27.93
2018-10-11T00:08:28.083Z,31.03
2018-10-11T00:10:56.702Z,27.63
2018-10-11T00:13:25.364Z,29.60
2018-10-11T00:15:54.055Z,30.90
2018-10-11T00:18:22.688Z,29.13
2018-10-11T00:20:51.306Z,30.30
2018-10-11T00:23:19.972Z,30.43
2018-10-11T00:25:48.556Z,31.20
2018-10-11T00:28:17.148Z,31.27
2018-10-11T00:30:45.828Z,32.17
2018-10-11T00:33:14.384Z,29.53
2018-10-11T00:35:43.030Z,30.53
2018-10-11T00:38:11.631Z,32.60
2018-10-11T00:40:40.252Z,32.13
2018-10-11T00:43:08.910Z,29.07
2018-10-11T00:45:37.720Z,32.40
2018-10-11T00:48:06.520Z,30.00
2018-10-11T00:50:35.120Z,32.63
2018-10-11T00:53:03.711Z,29.47
2018-10-11T00:55:32.280Z,31.80
2018-10-11T00:58:00.897Z,31.63
2018-10-11T01:00:29.535Z,28.70
2018-10-11T01:02:58.121Z,31.23
2018-10-11T01:05:26.777Z,34.63
2018-10-11T01:07:55.429Z,30.67
2018-10-11T01:10:24.039Z,31.00
2018-10-11T01:12:52.728Z,30.53
2018-10-11T01:15:21.351Z,33.50
2018-10-11T01:17:49.994Z,33.80
2018-10-11T01:20:18.739Z,32.63
2018-10-11T01:22:47.760Z,33.63
2018-10-11T01:25:16.424Z,33.37
2018-10-11T01:27:45.016Z,30.90
2018-10-11T01:30:13.701Z,35.40
2018-10-11T01:32:42.313Z,31.03
2018-10-11T01:35:10.985Z,30.53
2018-10-11T01:37:39.704Z,31.10
2018-10-11T01:40:08.315Z,35.33
2018-10-11T01:42:37.012Z,33.17
2018-10-11T01:45:06.202Z,32.77
2018-10-11T01:47:34.842Z,34.70
2018-10-11T01:50:03.609Z,31.40
2018-10-11T01:52:32.239Z,31.70
2018-10-11T01:55:00.895Z,34.27
2018-10-11T01:57:29.505Z,33.23
2018-10-11T01:59:58.061Z,37.23
2018-10-11T02:02:26.665Z,32.10
2018-10-11T02:04:55.301Z,32.60
2018-10-11T02:07:23.944Z,36.27
2018-10-11T02:09:52.503Z,33.40
2018-10-11T02:12:21.190Z,33.57
2018-10-11T02:14:49.763Z,32.97
2018-10-11T02:17:18.342Z,31.53
2018-10-11T02:19:46.933Z,35.70
2018-10-11T02:22:15.588Z,31.80
2018-10-11T02:24:44.168Z,35.80
2018-10-11T02:27:12.778Z,35.20
2018-10-11T02:29:41.405Z,35.40
2018-10-11T02:32:10.075Z,36.50
2018-10-11T02:34:38.718Z,35.87
2018-10-11T02:37:07.323Z,36.13
2018-10-11T02:39:35.902Z,32.00
2018-10-11T02:42:04.521Z,34.10
2018-10-11T02:44:33.073Z,31.73
2018-10-11T02:47:01.657Z,35.70
2018-10-11T02:49:30.277Z,35.87
2018-10-11T02:51:59.044Z,34.80
2018-10-11T02:54:27.664Z,36.70
2018-10-11T02:56:59.930Z,41.33
2018-10-11T02:59:32.597Z,32.70
2018-10-11T03:02:04.464Z,34.77
2018-10-11T03:04:34.824Z,33.47
2018-10-11T03:07:03.667Z,39.77
2018-10-11T03:09:32.363Z,35.10
2018-10-11T03:12:01.050Z,34.20
2018-10-11T03:14:29.702Z,34.30
2018-10-11T03:16:58.290Z,34.70
2018-10-11T03:19:26.898Z,42.30
2018-10-11T03:21:55.519Z,34.47
2018-10-11T03:24:24.117Z,34.47
2018-10-11T03:26:55.514Z,38.13
2018-10-11T03:29:24.131Z,35.83
2018-10-11T03:31:52.739Z,40.17
2018-10-11T03:34:21.304Z,34.23
2018-10-11T03:36:49.928Z,34.70
2018-10-11T03:39:18.481Z,35.20
2018-10-11T03:41:47.088Z,38.50
2018-10-11T03:44:15.689Z,38.00
2018-10-11T03:46:44.321Z,35.83
2018-10-11T03:49:12.927Z,34.10
2018-10-11T03:51:41.514Z,34.50
2018-10-11T03:54:10.104Z,42.60
2018-10-11T03:56:38.759Z,36.83
2018-10-11T03:59:07.705Z,36.43
2018-10-11T04:01:36.550Z,37.50
2018-10-11T04:04:05.192Z,35.53
2018-10-11T04:06:33.816Z,33.73
2018-10-11T04:09:02.445Z,36.47
2018-10-11T04:11:31.059Z,39.20
2018-10-11T04:13:59.650Z,37.53
2018-10-11T04:16:28.245Z,40.87
2018-10-11T04:18:56.878Z,38.07
2018-10-11T04:21:25.466Z,36.07
2018-10-11T04:23:54.042Z,39.23
2018-10-11T04:26:22.646Z,37.53
2018-10-11T04:28:51.193Z,42.63
2018-10-11T04:31:19.790Z,39.47
2018-10-11T04:33:48.388Z,39.53
2018-10-11T04:36:17.004Z,38.27
2018-10-11T04:38:45.609Z,36.70
2018-10-11T04:41:14.245Z,35.87
2018-10-11T04:43:43.083Z,39.13
2018-10-11T04:46:11.684Z,36.37
2018-10-11T04:48:40.285Z,36.77
2018-10-11T04:51:08.892Z,41.13
2018-10-11T04:53:37.541Z,39.20
2018-10-11T04:56:06.152Z,36.33
2018-10-11T04:58:34.740Z,37.50
2018-10-11T05:01:03.357Z,37.57
2018-10-11T05:03:31.971Z,37.67
2018-10-11T05:06:00.610Z,40.13
2018-10-11T05:08:29.160Z,36.93
2018-10-11T05:10:57.865Z,38.77
2018-10-11T05:13:40.094Z,39.83
2018-10-11T05:16:08.774Z,38.10
2018-10-11T05:18:38.436Z,40.20
2018-10-11T05:21:07.309Z,40.63
2018-10-11T05:23:36.277Z,41.90
2018-10-11T05:26:05.003Z,39.53
2018-10-11T05:28:33.540Z,44.13
2018-10-11T05:31:02.401Z,37.67
2018-10-11T05:33:31.094Z,39.13
2018-10-11T05:35:59.702Z,39.37
2018-10-11T05:38:28.363Z,42.47
2018-10-11T05:40:57.025Z,38.87
2018-10-11T05:43:25.687Z,41.10
2018-10-11T05:45:56.816Z,37.77
2018-10-11T05:48:26.953Z,38.40
2018-10-11T05:50:56.287Z,40.17
2018-10-11T05:53:25.390Z,42.80
2018-10-11T05:55:54.068Z,36.77
2018-10-11T05:58:22.855Z,41.67
2018-10-11T06:00:51.610Z,41.20
2018-10-11T06:03:20.285Z,39.37
2018-10-11T06:05:49.021Z,41.70
2018-10-11T06:08:17.791Z,39.37
2018-10-11T06:10:46.532Z,40.97
2018-10-11T06:13:15.374Z,38.93
2018-10-11T06:15:50.621Z,40.00
2018-10-11T06:18:19.244Z,42.53
2018-10-11T06:20:47.898Z,41.13
2018-10-11T06:23:16.588Z,39.00
2018-10-11T06:25:45.214Z,42.33
2018-10-11T06:28:13.935Z,37.83
2018-10-11T06:30:42.637Z,36.80
2018-10-11T06:33:11.350Z,39.30
2018-10-11T06:35:40.063Z,39.97
2018-10-11T06:38:08.724Z,43.33
2018-10-11T06:40:37.716Z,40.73
2018-10-11T06:43:06.728Z,43.27
2018-10-11T06:45:35.412Z,40.20
2018-10-11T06:48:06.960Z,39.80
2018-10-11T06:50:35.765Z,40.90
2018-10-11T06:53:04.758Z,42.10
2018-10-11T06:55:33.438Z,39.90
2018-10-11T06:58:02.020Z,39.03
2018-10-11T07:00:30.627Z,42.80
2018-10-11T07:03:00.769Z,42.23
2018-10-11T07:05:29.381Z,42.00
2018-10-11T07:07:57.972Z,39.27
2018-10-11T07:10:26.615Z,40.63
2018-10-11T07:12:55.210Z,40.57
2018-10-11T07:15:23.980Z,41.73
2018-10-11T07:17:52.647Z,39.97
2018-10-11T07:20:21.266Z,45.07
2018-10-11T07:22:49.905Z,43.63
2018-10-11T07:25:18.520Z,42.33
2018-10-11T07:27:47.201Z,40.07
2018-10-11T07:30:16.208Z,44.83
2018-10-11T07:32:44.854Z,43.20
2018-10-11T07:35:13.644Z,41.97
2018-10-11T07:37:47.055Z,41.10
2018-10-11T07:40:15.823Z,42.93
2018-10-11T07:42:44.506Z,38.90
2018-10-11T07:45:13.203Z,43.17
2018-10-11T07:47:41.868Z,43.60
2018-10-11T07:50:10.674Z,43.50
2018-10-11T07:52:39.399Z,40.53
2018-10-11T07:55:08.152Z,42.63
2018-10-11T07:57:36.880Z,42.07
2018-10-11T08:00:05.915Z,41.50
2018-10-11T08:02:35.788Z,41.83
2018-10-11T08:05:04.446Z,44.73
2018-10-11T08:07:34.446Z,39.10
2018-10-11T08:10:03.320Z,42.93
2018-10-11T08:12:34.467Z,42.27
2018-10-11T08:15:03.220Z,45.00
2018-10-11T08:17:33.406Z,35.20
2018-10-11T08:20:01.994Z,37.87
2018-10-11T08:22:30.648Z,42.17
2018-10-11T08:24:59.525Z,40.30
2018-10-11T08:30:21.757Z,40.00
2018-10-11T08:32:54.238Z,35.63
2018-10-11T08:35:23.107Z,38.70
2018-10-11T08:37:54.326Z,44.43
2018-10-11T08:40:25.118Z,37.07
2018-10-11T08:42:57.757Z,38.50
2018-10-11T08:45:27.140Z,37.40
2018-10-11T08:47:56.230Z,35.80
2018-10-11T08:50:25.255Z,36.83
2018-10-11T08:52:54.425Z,33.20
2018-10-11T08:55:23.424Z,38.87
2018-10-11T08:57:58.145Z,34.93
2018-10-11T09:01:30.860Z,33.37
2018-10-11T09:04:00.014Z,37.23
2018-10-11T09:06:29.245Z,33.97
2018-10-11T09:08:58.137Z,34.83
2018-10-11T09:11:27.488Z,33.70
2018-10-11T09:13:59.586Z,33.57
2018-10-11T09:16:30.073Z,30.60
2018-10-11T09:19:07.098Z,33.23
2018-10-11T09:21:36.017Z,32.57
2018-10-11T09:24:04.867Z,34.63
2018-10-11T09:26:33.641Z,34.57
2018-10-11T09:29:03.033Z,33.77
2018-10-11T09:31:32.047Z,33.37
2018-10-11T09:34:00.843Z,29.63
2018-10-11T09:36:29.854Z,31.07
2018-10-11T09:38:58.937Z,31.23
2018-10-11T09:41:28.032Z,33.77
2018-10-11T09:43:56.901Z,33.10
2018-10-11T09:46:25.669Z,28.20
2018-10-11T09:48:56.970Z,31.70
2018-10-11T09:51:25.870Z,29.67
2018-10-11T09:53:56.171Z,30.87
2018-10-11T09:57:35.674Z,29.23
2018-10-11T10:00:09.455Z,29.33
2018-10-11T10:02:39.577Z,28.60
2018-10-11T10:05:09.108Z,25.77
2018-10-11T10:07:38.270Z,27.00
2018-10-11T10:10:14.444Z,30.02
2018-10-11T10:12:43.498Z,29.80
2018-10-11T10:15:12.297Z,28.03
2018-10-11T10:17:41.590Z,29.23
2018-10-11T10:20:10.815Z,25.97
2018-10-11T10:22:39.640Z,25.57
2018-10-11T10:25:08.420Z,25.60
2018-10-11T10:27:37.256Z,25.93
2018-10-11T10:30:12.815Z,25.80
2018-10-11T10:32:42.681Z,27.48
2018-10-11T10:35:11.544Z,27.63
2018-10-11T10:37:40.641Z,23.10
2018-10-11T10:40:09.783Z,23.60
2018-10-11T10:42:38.685Z,21.80
2018-10-11T10:45:07.913Z,23.50
2018-10-11T10:47:37.084Z,25.97
2018-10-11T10:50:09.998Z,24.45
2018-10-11T10:52:39.053Z,24.20
2018-10-11T10:55:08.045Z,25.00
2018-10-11T10:57:36.848Z,23.67
2018-10-11T11:00:07.071Z,21.70
2018-10-11T11:02:36.853Z,21.17
2018-10-11T11:05:06.381Z,21.27
2018-10-11T11:07:35.463Z,23.77
2018-10-11T11:10:05.041Z,24.80
2018-10-11T11:12:34.003Z,23.80
2018-10-11T11:15:02.848Z,20.20
2018-10-11T11:17:31.569Z,22.70
2018-10-11T11:20:01.627Z,25.95
2018-10-11T11:22:30.702Z,24.85
2018-10-11T11:25:00.296Z,19.02
2018-10-11T11:27:29.824Z,21.40
2018-10-11T11:29:58.575Z,25.43
2018-10-11T11:32:27.362Z,21.15
2018-10-11T11:34:56.741Z,23.25
2018-10-11T11:37:32.394Z,20.68
2018-10-11T11:40:01.310Z,20.23
2018-10-11T11:42:30.167Z,23.57
2018-10-11T11:44:59.743Z,21.27
2018-10-11T11:47:29.212Z,23.25
2018-10-11T11:49:58.168Z,21.67
2018-10-11T11:52:27.281Z,22.62
2018-10-11T11:54:56.359Z,23.02
2018-10-11T11:57:25.297Z,25.68
2018-10-11T11:59:54.360Z,21.00
2018-10-11T12:02:23.238Z,20.03
2018-10-11T12:04:52.052Z,20.23
2018-10-11T12:07:21.575Z,19.90
2018-10-11T12:10:00.708Z,16.35
2018-10-11T12:13:22.692Z,19.75
2018-10-11T12:15:51.610Z,23.98
2018-10-11T12:18:42.291Z,21.12
2018-10-11T12:21:11.116Z,19.57
2018-10-11T12:23:39.890Z,19.02
2018-10-11T12:26:09.157Z,18.17
2018-10-11T12:28:46.412Z,18.55
2018-10-11T12:31:15.400Z,19.30
2018-10-11T12:33:44.167Z,18.87
2018-10-11T12:36:13.079Z,19.00
2018-10-11T12:38:42.120Z,19.07
2018-10-11T12:41:12.055Z,16.52
2018-10-11T12:43:41.044Z,17.60
2018-10-11T12:46:09.879Z,18.20
2018-10-11T12:48:40.804Z,17.90
2018-10-11T12:51:09.839Z,17.60
2018-10-11T12:53:42.244Z,15.55
2018-10-11T12:56:08.462Z,17.42
2018-10-11T12:58:37.367Z,15.85
2018-10-11T13:01:06.666Z,15.48
2018-10-11T13:03:35.686Z,15.55
2018-10-11T13:06:29.980Z,14.87
2018-10-11T13:09:00.044Z,15.03
2018-10-11T13:19:21.725Z,20.17
2018-10-11T13:22:02.382Z,19.92
2018-10-11T13:24:38.390Z,19.32
2018-10-11T13:27:33.560Z,20.60
2018-10-11T13:32:53.630Z,20.97
2018-10-11T13:35:23.134Z,20.37
2018-10-11T13:37:55.165Z,20.35
2018-10-11T13:40:24.229Z,20.33
2018-10-11T13:42:58.125Z,18.80
2018-10-11T13:45:36.172Z,20.50
2018-10-11T13:48:16.972Z,19.87
2018-10-11T13:50:45.888Z,20.48
2018-10-11T13:53:19.457Z,20.85
2018-10-11T13:58:57.347Z,20.95
2018-10-11T14:01:26.368Z,21.30
2018-10-11T14:10:03.836Z,19.75
2018-10-11T14:12:35.228Z,23.10
2018-10-11T14:15:04.344Z,23.73
2018-10-11T14:17:33.593Z,21.05
2018-10-11T14:20:02.981Z,20.62
2018-10-11T14:22:31.858Z,20.08
2018-10-11T14:25:02.143Z,20.25
2018-10-11T14:27:32.548Z,20.60
2018-10-11T14:30:01.688Z,19.48
2018-10-11T14:32:30.810Z,20.43
2018-10-11T14:34:59.782Z,19.32
2018-10-11T14:37:29.148Z,18.65
2018-10-11T14:39:58.213Z,17.98
2018-10-11T14:42:27.266Z,20.17
2018-10-11T14:44:58.554Z,20.55
2018-10-11T14:47:27.599Z,20.32
2018-10-11T14:49:56.598Z,20.05
2018-10-11T14:52:25.423Z,20.37
2018-10-11T14:54:55.809Z,20.97
2018-10-11T14:57:24.843Z,19.60
2018-10-11T14:59:53.725Z,19.42
2018-10-11T15:02:22.565Z,19.98
2018-10-11T15:04:51.759Z,20.75
2018-10-11T15:07:20.821Z,21.25
2018-10-11T15:09:50.426Z,19.48
2018-10-11T15:12:19.713Z,20.40
2018-10-11T15:14:48.924Z,20.23
2018-10-11T15:17:17.894Z,18.85
2018-10-11T15:19:46.952Z,19.37
2018-10-11T15:22:15.889Z,21.65
2018-10-11T15:24:45.076Z,19.80
2018-10-11T15:27:14.071Z,21.52
2018-10-11T15:29:43.138Z,20.45
2018-10-11T15:32:12.188Z,18.90
2018-10-11T15:34:41.062Z,17.87
2018-10-11T15:37:10.100Z,19.92
2018-10-11T15:39:39.127Z,19.05
2018-10-11T15:42:08.208Z,17.70
2018-10-11T15:44:37.151Z,18.77
2018-10-11T15:47:06.295Z,18.65
2018-10-11T15:49:35.339Z,19.98
2018-10-11T15:52:04.328Z,18.60
2018-10-11T15:54:33.328Z,19.05
2018-10-11T15:57:02.412Z,17.77
2018-10-11T15:59:31.497Z,19.62
2018-10-11T16:02:00.623Z,18.48
2018-10-11T16:04:29.762Z,18.15
2018-10-11T16:06:58.759Z,20.45
2018-10-11T16:09:28.231Z,18.12
2018-10-11T16:11:57.310Z,18.67
2018-10-11T16:14:26.366Z,18.80
2018-10-11T16:16:55.320Z,20.37
2018-10-11T16:19:24.235Z,19.87
2018-10-11T16:21:53.331Z,20.10
2018-10-11T16:24:25.859Z,18.82
2018-10-11T16:26:54.946Z,22.13
2018-10-11T16:29:25.029Z,19.77
2018-10-11T16:32:00.723Z,19.48
2018-10-11T16:34:30.726Z,20.10
2018-10-11T16:36:59.715Z,21.05
2018-10-11T16:39:28.682Z,20.80
2018-10-11T16:41:57.682Z,18.15
2018-10-11T16:44:26.848Z,19.52
2018-10-11T16:46:58.855Z,20.08
2018-10-11T16:49:27.869Z,19.50
2018-10-11T16:51:57.153Z,20.10
2018-10-11T16:54:26.233Z,24.65
2018-10-11T16:56:55.398Z,19.70
2018-10-11T16:59:24.520Z,19.23
2018-10-11T17:01:53.618Z,19.45
2018-10-11T17:04:24.690Z,21.17
2018-10-11T17:06:55.914Z,20.75
2018-10-11T17:13:12.698Z,24.37
2018-10-11T17:15:42.457Z,22.62
2018-10-11T17:18:11.503Z,25.12
2018-10-11T17:20:40.491Z,22.58
2018-10-11T17:23:10.539Z,22.58
2018-10-11T17:26:01.335Z,22.40
2018-10-11T17:28:30.452Z,34.25
2018-10-11T17:31:04.478Z,24.55
2018-10-11T17:38:26.386Z,24.77
2018-10-11T17:40:55.924Z,23.98
2018-10-11T17:43:26.646Z,28.32
2018-10-11T17:46:00.723Z,24.98
2018-10-11T17:48:29.689Z,22.55
2018-10-11T17:51:20.179Z,24.23
2018-10-11T17:53:49.169Z,24.12
2018-10-11T17:56:20.968Z,22.75
2018-10-11T17:58:51.342Z,22.40
2018-10-11T18:01:27.700Z,24.02
2018-10-11T18:04:02.773Z,24.52
2018-10-11T18:06:33.932Z,25.70
2018-10-11T18:09:06.208Z,24.80
2018-10-11T18:11:36.003Z,26.77
2018-10-11T18:14:11.736Z,22.67
2018-10-11T18:16:40.921Z,23.05
2018-10-11T18:19:11.091Z,22.85
2018-10-11T18:21:46.657Z,25.85
2018-10-11T18:24:30.515Z,21.23
2018-10-11T18:26:59.643Z,22.35
2018-10-11T18:29:29.954Z,21.10
2018-10-11T18:35:18.319Z,22.67
2018-10-11T18:38:12.317Z,26.48
2018-10-11T18:40:43.799Z,21.80
2018-10-11T18:43:13.584Z,24.67
2018-10-11T18:45:46.706Z,21.20
2018-10-11T18:48:15.676Z,24.72
2018-10-11T18:50:44.837Z,21.80
2018-10-11T18:53:14.142Z,25.27
2018-10-11T18:55:50.369Z,25.50
2018-10-11T18:58:24.187Z,23.67
2018-10-11T19:00:55.014Z,22.50
2018-10-11T19:03:26.127Z,23.67
2018-10-11T19:05:57.076Z,25.52
2018-10-11T19:08:26.248Z,25.08
2018-10-11T19:10:55.418Z,23.95
2018-10-11T19:13:27.050Z,25.43
2018-10-11T19:15:56.702Z,23.77
2018-10-11T19:18:34.213Z,23.62
2018-10-11T19:21:05.637Z,25.45
2018-10-11T19:23:35.810Z,23.77
2018-10-11T19:26:05.861Z,24.60
2018-10-11T19:28:49.799Z,25.30
2018-10-11T19:31:23.828Z,25.95
2018-10-11T19:33:53.020Z,24.52
2018-10-11T19:37:32.362Z,25.97
2018-10-11T19:40:01.405Z,23.90
2018-10-11T19:42:31.652Z,22.80
2018-10-11T19:45:06.691Z,26.37
2018-10-11T19:47:40.174Z,27.70
2018-10-11T19:50:21.217Z,23.42
2018-10-11T19:55:34.451Z,26.80
2018-10-11T19:58:03.626Z,26.23
2018-10-11T20:00:35.295Z,24.23
2018-10-11T20:06:44.288Z,23.92
2018-10-11T20:14:20.036Z,22.98
2018-10-11T20:16:58.262Z,23.00
2018-10-11T20:19:39.462Z,22.32
2018-10-11T20:22:15.820Z,24.63
2018-10-11T20:24:52.392Z,26.90
2018-10-11T20:27:31.534Z,28.35
2018-10-11T20:30:02.402Z,21.95
2018-10-11T20:32:40.426Z,24.52
2018-10-11T20:39:19.595Z,22.80
2018-10-11T20:41:50.132Z,24.70
2018-10-11T20:44:23.782Z,25.52
2018-10-11T20:46:58.759Z,21.50
2018-10-11T20:50:10.310Z,27.52
2018-10-11T20:52:50.947Z,22.87
2018-10-11T20:55:44.892Z,25.80
2018-10-11T20:58:14.850Z,23.60
2018-10-11T21:00:55.714Z,22.22
2018-10-11T21:08:49.300Z,25.27
2018-10-11T21:11:31.429Z,23.73
2018-10-11T21:14:14.122Z,22.62
2018-10-11T21:20:23.673Z,27.27
2018-10-11T21:22:55.852Z,25.00
2018-10-11T21:25:24.965Z,24.57
2018-10-11T21:33:22.859Z,23.75
2018-10-11T21:36:07.086Z,24.40
2018-10-11T21:38:40.775Z,22.83
2018-10-11T21:43:47.500Z,21.10
2018-10-11T21:46:17.598Z,23.20
2018-10-11T21:48:52.290Z,20.35
2018-10-11T21:51:45.989Z,23.07
2018-10-11T21:56:56.643Z,21.27
2018-10-11T21:59:29.943Z,24.18
2018-10-11T22:02:00.585Z,21.90
2018-10-11T22:04:49.977Z,20.63
2018-10-11T22:08:24.913Z,21.33
2018-10-11T22:11:01.825Z,21.57
2018-10-11T22:13:51.974Z,22.05
2018-10-11T22:16:20.963Z,21.83
2018-10-11T22:18:51.023Z,20.43
2018-10-11T22:21:19.815Z,20.33
2018-10-11T22:23:50.743Z,23.00
2018-10-11T22:26:46.807Z,21.90
2018-10-11T22:42:53.825Z,18.17
2018-10-11T22:48:31.214Z,22.77
2018-10-11T22:57:29.847Z,21.43
2018-10-11T23:00:13.703Z,19.37
2018-10-11T23:02:45.556Z,19.70
2018-10-11T23:08:55.977Z,18.17
2018-10-11T23:11:29.707Z,19.65
2018-10-11T23:14:06.828Z,18.00
2018-10-11T23:16:38.168Z,26.73
2018-10-11T23:22:24.354Z,16.93
2018-10-11T23:24:55.633Z,20.53
2018-10-11T23:27:29.722Z,22.07
2018-10-11T23:30:01.865Z,18.70
2018-10-11T23:32:46.515Z,19.67
2018-10-11T23:35:15.614Z,18.93
2018-10-11T23:37:44.536Z,21.53
2018-10-11T23:40:16.237Z,20.80
2018-10-11T23:42:45.305Z,20.30
2018-10-11T23:48:07.910Z,20.48
2018-10-11T23:50:37.061Z,18.25
2018-10-11T23:53:10.341Z,18.33
2018-10-11T23:58:44.796Z,20.63
